Time;durP1;ratioP1;P1;durP2;ratioP2;P2;SDS_P1;SDS_P2;PMS_P1;PMS_P2;Temp;Humidity;BMP_temperature;BMP_pressure;BME280_temperature;BME280_humidity;BME280_pressure;Samples;Min_cycle;Max_cycle;Signal;HPM_P1;HPM_P2
2023/02/16 00:01:17;;;;;;;2.53;2.33;;;20.30;70.10;;;;;;5087551;28;20194;-54
2023/02/16 00:03:44;;;;;;;2.20;2.00;;;20.30;69.30;;;;;;5075836;28;20233;-57
2023/02/16 00:06:14;;;;;;;2.17;1.98;;;20.30;69.20;;;;;;5087256;28;20189;-56
2023/02/16 00:08:42;;;;;;;2.28;2.08;;;20.30;69.30;;;;;;5076604;28;20221;-57
2023/02/16 00:14:02;;;;;;;2.30;2.13;;;20.30;69.30;;;;;;5083841;28;20202;-56
2023/02/16 00:16:28;;;;;;;2.28;2.08;;;20.30;69.30;;;;;;5074206;28;20187;-55
2023/02/16 00:18:55;;;;;;;2.22;2.03;;;20.30;69.30;;;;;;5072385;28;20681;-56
2023/02/16 00:21:22;;;;;;;2.03;1.73;;;20.30;69.30;;;;;;5071652;28;20214;-56
2023/02/16 00:23:49;;;;;;;2.33;2.03;;;20.30;69.30;;;;;;5073187;28;20279;-54
2023/02/16 00:26:19;;;;;;;2.40;1.90;;;20.30;69.30;;;;;;5079884;28;20661;-56
2023/02/16 00:28:48;;;;;;;2.25;1.90;;;20.30;69.30;;;;;;5091533;28;20233;-56
2023/02/16 00:31:18;;;;;;;2.45;2.00;;;20.30;69.30;;;;;;5083464;28;20197;-55
2023/02/16 00:33:46;;;;;;;2.30;1.90;;;20.30;69.30;;;;;;5076050;28;20242;-56
2023/02/16 00:36:12;;;;;;;2.65;2.38;;;20.20;69.20;;;;;;5075570;28;20594;-57
2023/02/16 00:38:39;;;;;;;2.60;2.40;;;20.20;69.30;;;;;;5071101;28;20605;-56
2023/02/16 00:41:49;;;;;;;2.15;1.98;;;20.20;70.10;;;;;;5075017;28;20202;-56
2023/02/16 00:43:53;;;;;;;2.03;1.83;;;20.20;69.20;;;;;;5077726;28;20264;-56
2023/02/16 00:46:22;;;;;;;2.22;2.03;;;20.20;69.20;;;;;;5077318;28;20235;-55
2023/02/16 00:48:49;;;;;;;2.08;1.88;;;20.20;69.20;;;;;;5083525;28;20295;-55
2023/02/16 00:51:15;;;;;;;1.77;1.67;;;20.20;69.30;;;;;;5083150;28;20198;-53
2023/02/16 00:53:42;;;;;;;2.15;1.95;;;20.20;69.30;;;;;;5078676;28;20210;-56
2023/02/16 00:56:13;;;;;;;2.03;1.90;;;20.20;69.30;;;;;;5074017;28;20194;-57
2023/02/16 00:58:40;;;;;;;2.20;2.00;;;20.20;69.30;;;;;;5079332;28;20198;-55
2023/02/16 01:01:09;;;;;;;2.55;1.70;;;20.20;69.30;;;;;;5073159;28;20194;-57
2023/02/16 01:03:37;;;;;;;2.08;1.85;;;20.20;69.30;;;;;;5078651;28;20674;-56
2023/02/16 01:11:32;;;;;;;2.20;1.80;;;20.20;69.30;;;;;;5078658;28;20340;-55
2023/02/16 01:13:59;;;;;;;2.50;1.90;;;20.20;69.30;;;;;;5079155;28;20214;-54
2023/02/16 01:16:35;;;;;;;2.65;1.80;;;20.10;69.20;;;;;;5077556;28;20206;-57
2023/02/16 01:19:03;;;;;;;2.33;1.80;;;20.10;69.30;;;;;;5072300;28;20198;-55
2023/02/16 01:21:30;;;;;;;1.70;1.55;;;20.10;69.20;;;;;;5081800;28;20286;-55
2023/02/16 01:23:56;;;;;;;2.55;2.10;;;20.10;69.20;;;;;;5072426;28;20636;-57
2023/02/16 01:26:23;;;;;;;1.75;1.65;;;20.10;69.20;;;;;;5080829;28;20662;-57
2023/02/16 01:28:51;;;;;;;3.20;2.90;;;20.10;69.20;;;;;;5079363;28;20650;-54
2023/02/16 01:31:17;;;;;;;2.70;2.10;;;20.10;69.20;;;;;;5077274;28;20574;-56
2023/02/16 01:33:44;;;;;;;2.40;2.20;;;20.10;70.00;;;;;;5083552;28;20210;-55
2023/02/16 01:36:24;;;;;;;2.40;2.20;;;20.10;69.30;;;;;;5072703;28;20197;-57
2023/02/16 01:38:51;;;;;;;1.60;1.50;;;20.10;69.20;;;;;;5079512;28;20202;-55
2023/02/16 01:41:24;;;;;;;2.40;2.20;;;20.10;69.20;;;;;;5077869;28;20191;-52
2023/02/16 01:43:56;;;;;;;2.83;2.63;;;20.10;69.20;;;;;;5078165;28;20222;-53
2023/02/16 01:46:29;;;;;;;1.90;1.70;;;20.10;69.20;;;;;;5081608;28;21467;-52
2023/02/16 01:48:56;;;;;;;2.00;1.88;;;20.10;69.30;;;;;;5076820;28;20198;-59
2023/02/16 01:51:28;;;;;;;4.38;2.00;;;20.10;69.20;;;;;;5085550;28;20201;-54
2023/02/16 01:54:01;;;;;;;2.10;1.88;;;20.10;69.30;;;;;;5086116;28;20206;-57
2023/02/16 01:56:33;;;;;;;2.50;2.30;;;20.10;69.20;;;;;;5086034;28;20195;-57
2023/02/16 01:59:09;;;;;;;2.80;2.60;;;20.10;69.20;;;;;;5087151;28;20225;-57
2023/02/16 02:01:43;;;;;;;3.50;2.50;;;20.10;70.00;;;;;;5081982;28;20704;-55
2023/02/16 02:07:22;;;;;;;3.03;2.83;;;20.10;69.30;;;;;;5078372;28;20201;-52
2023/02/16 02:09:57;;;;;;;1.63;1.52;;;20.10;69.30;;;;;;5084828;28;20572;-56
2023/02/16 02:12:28;;;;;;;2.67;2.33;;;20.10;69.30;;;;;;5080633;28;20208;-56
2023/02/16 02:14:56;;;;;;;1.80;1.70;;;20.10;69.30;;;;;;5082085;28;20198;-52
2023/02/16 02:17:24;;;;;;;2.60;2.40;;;20.10;69.20;;;;;;5087014;28;20241;-53
2023/02/16 02:19:58;;;;;;;1.88;1.75;;;20.10;69.20;;;;;;5079558;28;20205;-53
2023/02/16 02:23:31;;;;;;;2.00;1.90;;;20.10;69.20;;;;;;5082693;28;20245;-56
2023/02/16 02:26:25;;;;;;;2.13;2.03;;;20.10;69.20;;;;;;5071752;28;20802;-53
2023/02/16 02:28:59;;;;;;;2.55;2.35;;;20.10;69.20;;;;;;5074825;28;20586;-56
2023/02/16 02:31:36;;;;;;;2.10;1.95;;;20.00;69.20;;;;;;5074499;28;20422;-57
2023/02/16 02:34:12;;;;;;;2.42;2.20;;;20.10;69.30;;;;;;5090061;28;20202;-53
2023/02/16 02:36:45;;;;;;;2.40;2.20;;;20.00;69.10;;;;;;5088561;28;20193;-51
2023/02/16 02:39:27;;;;;;;2.45;2.20;;;20.00;69.10;;;;;;5092457;28;20198;-55
2023/02/16 02:42:04;;;;;;;2.10;1.90;;;20.00;69.20;;;;;;5086835;28;20198;-53
2023/02/16 02:44:35;;;;;;;1.77;1.67;;;20.00;69.10;;;;;;5090656;28;20221;-54
2023/02/16 02:47:02;;;;;;;2.35;2.15;;;20.00;69.10;;;;;;5088687;28;20191;-54
2023/02/16 02:49:28;;;;;;;3.50;2.15;;;20.00;69.20;;;;;;5090529;28;20506;-52
2023/02/16 02:51:55;;;;;;;3.00;2.05;;;20.00;69.10;;;;;;5085709;28;20562;-56
2023/02/16 03:02:55;;;;;;;2.03;1.83;;;20.00;69.20;;;;;;5085056;28;20241;-55
2023/02/16 03:05:24;;;;;;;2.08;1.88;;;20.00;69.10;;;;;;5077632;28;20194;-56
2023/02/16 03:07:56;;;;;;;2.10;2.00;;;20.00;69.20;;;;;;5083408;28;20205;-54
2023/02/16 03:13:14;;;;;;;2.30;2.10;;;20.00;69.90;;;;;;5084747;28;20201;-53
2023/02/16 03:15:46;;;;;;;2.45;2.00;;;20.00;69.20;;;;;;5080786;28;20205;-54
2023/02/16 03:29:21;;;;;;;1.98;1.88;;;20.00;69.20;;;;;;5086992;28;20251;-55
2023/02/16 03:31:51;;;;;;;2.38;2.17;;;20.00;69.90;;;;;;5072997;28;20234;-50
2023/02/16 03:34:19;;;;;;;2.25;2.08;;;20.00;69.10;;;;;;5073801;28;20205;-52
2023/02/16 03:36:49;;;;;;;2.20;2.00;;;20.00;69.10;;;;;;5072561;28;20546;-54
2023/02/16 03:39:17;;;;;;;2.22;1.95;;;20.00;69.10;;;;;;5070679;28;20443;-54
2023/02/16 03:41:47;;;;;;;2.40;2.20;;;20.00;69.20;;;;;;5075857;28;20202;-55
2023/02/16 03:44:14;;;;;;;2.42;2.03;;;20.00;69.20;;;;;;5087178;28;20732;-58
2023/02/16 03:46:41;;;;;;;2.47;2.15;;;20.00;69.10;;;;;;5077408;28;20190;-56
2023/02/16 03:49:09;;;;;;;2.10;1.88;;;19.90;69.00;;;;;;5074945;28;20194;-55
2023/02/16 03:51:36;;;;;;;2.17;1.98;;;19.90;69.00;;;;;;5084980;28;20596;-53
2023/02/16 03:54:02;;;;;;;2.38;2.17;;;20.00;69.10;;;;;;5084516;28;20195;-54
2023/02/16 03:56:29;;;;;;;2.55;2.35;;;19.90;69.00;;;;;;5086124;28;20198;-54
2023/02/16 03:58:56;;;;;;;2.35;2.13;;;19.90;69.00;;;;;;5089761;28;20223;-56
2023/02/16 04:01:23;;;;;;;2.13;1.92;;;19.90;69.00;;;;;;5088973;28;20203;-55
2023/02/16 04:03:50;;;;;;;2.72;2.08;;;19.90;69.00;;;;;;5081072;28;20222;-57
2023/02/16 04:06:18;;;;;;;2.10;1.90;;;19.90;69.00;;;;;;5080355;28;20198;-59
2023/02/16 04:08:45;;;;;;;2.35;2.15;;;19.90;68.90;;;;;;5085258;28;20684;-56
2023/02/16 04:13:55;;;;;;;1.98;1.80;;;19.90;69.00;;;;;;5088644;28;20212;-52
2023/02/16 04:16:22;;;;;;;2.45;2.22;;;19.90;69.00;;;;;;5079078;28;20198;-55
2023/02/16 04:18:49;;;;;;;2.17;1.98;;;19.90;68.90;;;;;;5082207;28;20217;-57
2023/02/16 04:21:17;;;;;;;2.33;2.13;;;19.90;69.00;;;;;;5074934;28;20204;-55
2023/02/16 04:23:44;;;;;;;2.00;1.80;;;19.90;69.00;;;;;;5086861;28;20296;-54
2023/02/16 04:26:10;;;;;;;2.00;1.90;;;19.90;68.90;;;;;;5091217;28;20468;-55
2023/02/16 04:28:37;;;;;;;2.03;1.90;;;19.90;68.90;;;;;;5081840;28;20645;-55
2023/02/16 04:31:04;;;;;;;2.38;2.17;;;19.90;69.00;;;;;;5088526;28;20198;-56
2023/02/16 04:33:31;;;;;;;2.30;2.10;;;19.90;69.00;;;;;;5086413;28;20198;-58
2023/02/16 04:35:57;;;;;;;2.30;2.10;;;19.90;69.00;;;;;;5084400;28;20657;-56
2023/02/16 04:38:25;;;;;;;1.80;1.70;;;19.90;68.90;;;;;;5083623;28;20198;-58
2023/02/16 04:40:52;;;;;;;2.38;2.17;;;19.90;68.90;;;;;;5077418;28;20285;-53
2023/02/16 04:43:19;;;;;;;2.10;2.00;;;19.90;68.90;;;;;;5088314;28;20613;-57
2023/02/16 04:45:45;;;;;;;2.50;2.30;;;19.90;68.90;;;;;;5088210;28;20198;-56
2023/02/16 04:48:12;;;;;;;2.10;2.00;;;19.90;68.90;;;;;;5074048;28;20195;-57
2023/02/16 04:50:39;;;;;;;2.00;1.75;;;19.90;68.90;;;;;;5086121;28;20543;-56
2023/02/16 04:53:06;;;;;;;1.90;1.80;;;19.90;68.90;;;;;;5086027;28;20195;-56
2023/02/16 04:55:34;;;;;;;1.80;1.70;;;19.90;68.90;;;;;;5077555;28;20194;-53
2023/02/16 04:58:01;;;;;;;1.75;1.65;;;19.90;68.90;;;;;;5088533;28;20680;-56
2023/02/16 05:00:27;;;;;;;1.90;1.80;;;19.90;68.90;;;;;;5087708;28;20202;-54
2023/02/16 05:02:54;;;;;;;2.35;2.15;;;19.90;68.90;;;;;;5086269;28;20194;-56
2023/02/16 05:05:21;;;;;;;3.00;2.70;;;19.90;68.90;;;;;;5083125;28;20222;-56
2023/02/16 05:07:47;;;;;;;1.77;1.67;;;19.90;68.90;;;;;;5076088;28;20229;-55
2023/02/16 05:10:14;;;;;;;2.50;2.30;;;19.90;68.90;;;;;;5071961;28;20664;-57
2023/02/16 05:15:27;;;;;;;2.05;1.85;;;19.90;68.90;;;;;;5077801;28;20201;-56
2023/02/16 05:17:53;;;;;;;2.03;1.83;;;19.90;68.90;;;;;;5088386;28;20206;-56
2023/02/16 05:21:28;;;;;;;2.70;2.40;;;19.90;68.90;;;;;;5084924;28;20237;-56
2023/02/16 05:23:07;;;;;;;2.08;1.70;;;19.90;68.90;;;;;;5081967;28;20681;-56
2023/02/16 05:25:34;;;;;;;2.20;2.00;;;19.90;68.90;;;;;;5087538;28;20217;-56
2023/02/16 05:28:05;;;;;;;1.85;1.75;;;19.90;68.90;;;;;;5084140;28;20202;-54
2023/02/16 05:30:33;;;;;;;2.47;2.28;;;19.90;68.90;;;;;;5078139;28;20202;-57
2023/02/16 05:33:00;;;;;;;1.85;1.75;;;19.90;68.90;;;;;;5074858;28;20199;-56
2023/02/16 05:35:26;;;;;;;1.90;1.70;;;19.90;68.90;;;;;;5090052;28;20191;-53
2023/02/16 05:37:53;;;;;;;2.20;2.00;;;19.90;68.90;;;;;;5086364;28;20658;-55
2023/02/16 05:40:20;;;;;;;2.55;2.35;;;19.90;68.90;;;;;;5078052;28;20202;-54
2023/02/16 05:42:47;;;;;;;2.13;1.92;;;19.90;68.80;;;;;;5077182;28;20210;-54
2023/02/16 05:45:15;;;;;;;1.90;1.80;;;19.90;68.90;;;;;;5076209;28;20421;-56
2023/02/16 05:47:41;;;;;;;2.30;2.10;;;19.90;68.80;;;;;;5073668;28;20199;-54
2023/02/16 05:50:08;;;;;;;1.90;1.80;;;19.90;68.90;;;;;;5082703;28;20194;-55
2023/02/16 05:52:35;;;;;;;2.45;2.25;;;19.90;68.80;;;;;;5084613;28;20206;-59
2023/02/16 05:55:02;;;;;;;2.50;2.30;;;19.90;68.80;;;;;;5075051;28;20194;-58
2023/02/16 05:57:29;;;;;;;2.10;1.70;;;19.90;68.80;;;;;;5083055;28;20202;-55
2023/02/16 05:59:55;;;;;;;2.75;2.55;;;19.90;68.90;;;;;;5083339;28;20202;-56
2023/02/16 06:02:23;;;;;;;2.60;2.15;;;19.90;68.90;;;;;;5084080;28;20202;-55
2023/02/16 06:04:50;;;;;;;2.15;1.90;;;19.90;68.90;;;;;;5080343;28;20215;-55
2023/02/16 06:07:17;;;;;;;2.53;2.33;;;19.90;69.60;;;;;;5085812;28;20202;-55
2023/02/16 06:09:43;;;;;;;2.05;1.75;;;19.90;68.90;;;;;;5088967;28;20186;-54
2023/02/16 06:12:10;;;;;;;2.72;2.30;;;19.90;68.90;;;;;;5084985;28;20566;-56
2023/02/16 06:14:37;;;;;;;2.75;2.55;;;19.80;68.80;;;;;;5090069;28;20198;-55
2023/02/16 06:17:03;;;;;;;2.85;2.13;;;19.90;68.90;;;;;;5089748;28;20195;-57
2023/02/16 06:19:31;;;;;;;2.40;2.20;;;19.90;69.00;;;;;;5079433;28;20193;-54
2023/02/16 06:21:58;;;;;;;2.08;1.98;;;19.90;68.90;;;;;;5080476;28;20278;-54
2023/02/16 06:24:25;;;;;;;2.10;1.90;;;19.90;69.70;;;;;;5082173;28;20222;-55
2023/02/16 06:26:52;;;;;;;1.90;1.80;;;19.90;68.90;;;;;;5084734;28;20605;-54
2023/02/16 06:29:18;;;;;;;2.30;2.10;;;19.90;68.90;;;;;;5082245;28;20199;-56
2023/02/16 06:31:45;;;;;;;2.60;2.15;;;19.90;68.90;;;;;;5085839;28;20202;-54
2023/02/16 06:34:12;;;;;;;2.45;2.25;;;19.90;68.90;;;;;;5083189;28;20539;-57
2023/02/16 06:36:40;;;;;;;2.45;2.25;;;19.90;68.90;;;;;;5089679;28;20195;-52
2023/02/16 06:39:06;;;;;;;2.08;1.98;;;19.90;68.90;;;;;;5084773;28;20213;-54
2023/02/16 06:41:36;;;;;;;2.90;2.10;;;19.90;68.90;;;;;;5088737;28;20255;-57
2023/02/16 06:44:05;;;;;;;2.15;1.95;;;19.90;68.90;;;;;;5082563;28;20217;-56
2023/02/16 06:46:31;;;;;;;2.00;1.90;;;19.90;68.90;;;;;;5083744;28;20207;-54
2023/02/16 06:48:59;;;;;;;2.10;1.90;;;19.90;68.90;;;;;;5084326;28;20198;-58
2023/02/16 06:51:26;;;;;;;1.70;1.52;;;19.90;68.90;;;;;;5087781;28;20194;-55
2023/02/16 06:53:54;;;;;;;2.15;1.95;;;19.90;69.00;;;;;;5088696;28;20206;-56
2023/02/16 06:56:21;;;;;;;2.50;2.30;;;19.90;68.90;;;;;;5084716;28;20201;-57
2023/02/16 06:58:48;;;;;;;2.40;2.03;;;19.90;68.90;;;;;;5087715;28;20255;-53
2023/02/16 07:01:21;;;;;;;2.17;1.98;;;19.90;68.90;;;;;;5088655;28;20600;-57
2023/02/16 07:03:48;;;;;;;2.55;2.35;;;19.90;68.80;;;;;;5082573;28;20256;-59
2023/02/16 07:06:15;;;;;;;2.38;2.17;;;19.90;68.80;;;;;;5076153;28;20190;-56
2023/02/16 07:08:41;;;;;;;2.13;2.03;;;19.90;68.80;;;;;;5078148;28;20616;-58
2023/02/16 07:11:10;;;;;;;2.22;2.00;;;19.90;68.80;;;;;;5086975;28;20198;-58
2023/02/16 07:13:36;;;;;;;2.50;2.30;;;19.90;69.60;;;;;;5084367;28;20248;-57
2023/02/16 07:16:04;;;;;;;1.83;1.73;;;19.90;68.80;;;;;;5084599;28;20191;-54
2023/02/16 07:18:31;;;;;;;2.17;2.00;;;20.00;68.90;;;;;;5082744;28;20608;-57
2023/02/16 07:20:58;;;;;;;2.60;2.40;;;20.00;68.90;;;;;;5087078;28;20198;-54
2023/02/16 07:23:24;;;;;;;1.83;1.73;;;20.00;68.90;;;;;;5080909;28;21464;-56
2023/02/16 07:25:51;;;;;;;2.15;1.95;;;20.00;68.80;;;;;;5077251;28;20214;-56
2023/02/16 07:28:19;;;;;;;2.10;1.90;;;20.00;68.80;;;;;;5087985;28;20647;-57
2023/02/16 07:30:46;;;;;;;2.03;1.92;;;20.00;68.80;;;;;;5088752;28;20205;-58
2023/02/16 07:33:14;;;;;;;1.90;1.80;;;20.00;68.80;;;;;;5087316;28;20545;-57
2023/02/16 07:35:42;;;;;;;1.95;1.85;;;20.00;68.80;;;;;;5090690;28;20198;-57
2023/02/16 07:38:09;;;;;;;1.65;1.55;;;20.00;68.80;;;;;;5088974;28;20277;-59
2023/02/16 07:40:36;;;;;;;2.00;1.80;;;20.00;68.80;;;;;;5077435;28;20333;-56
2023/02/16 07:43:04;;;;;;;2.60;2.17;;;20.00;68.70;;;;;;5086878;28;20198;-60
2023/02/16 07:45:32;;;;;;;2.30;2.05;;;20.00;68.80;;;;;;5085985;28;20234;-57
2023/02/16 07:48:00;;;;;;;2.00;1.80;;;20.00;68.70;;;;;;5084906;28;20201;-57
2023/02/16 07:50:26;;;;;;;2.35;2.15;;;20.00;68.70;;;;;;5088542;28;20561;-55
2023/02/16 07:52:53;;;;;;;1.90;1.80;;;20.00;68.70;;;;;;5084441;28;20199;-58
2023/02/16 07:55:20;;;;;;;1.85;1.75;;;20.10;68.90;;;;;;5087093;28;20219;-60
2023/02/16 07:57:48;;;;;;;2.13;1.92;;;20.00;68.70;;;;;;5085593;28;20662;-57
2023/02/16 08:00:15;;;;;;;2.13;1.92;;;20.10;68.80;;;;;;5086602;28;20285;-56
2023/02/16 08:02:43;;;;;;;2.67;2.47;;;20.10;68.80;;;;;;5086444;28;20202;-59
2023/02/16 08:05:10;;;;;;;2.35;2.25;;;20.10;68.80;;;;;;5087487;28;20627;-57
2023/02/16 08:07:38;;;;;;;2.20;2.05;;;20.10;68.80;;;;;;5084012;28;20201;-55
2023/02/16 08:10:06;;;;;;;2.25;2.05;;;20.10;68.80;;;;;;5074308;28;20685;-59
2023/02/16 08:12:33;;;;;;;2.00;1.90;;;20.10;68.80;;;;;;5082790;28;20199;-55
2023/02/16 08:15:00;;;;;;;1.90;1.75;;;20.10;68.70;;;;;;5087266;28;20198;-53
2023/02/16 08:17:26;;;;;;;2.28;2.08;;;20.10;68.80;;;;;;5083816;28;20190;-55
2023/02/16 08:19:54;;;;;;;2.40;2.20;;;20.10;68.80;;;;;;5077459;28;20194;-57
2023/02/16 08:22:21;;;;;;;1.88;1.77;;;20.10;68.80;;;;;;5086866;28;21098;-56
2023/02/16 08:24:48;;;;;;;1.83;1.73;;;20.10;68.80;;;;;;5076068;28;20220;-57
2023/02/16 08:27:14;;;;;;;1.80;1.70;;;20.10;68.80;;;;;;5086849;28;20194;-55
2023/02/16 08:29:41;;;;;;;2.40;2.20;;;20.10;68.70;;;;;;5083659;28;20205;-57
2023/02/16 08:32:11;;;;;;;1.75;1.65;;;20.10;68.70;;;;;;5078724;28;20198;-56
2023/02/16 08:34:38;;;;;;;2.20;2.00;;;20.10;68.70;;;;;;5081950;28;20636;-57
2023/02/16 08:37:08;;;;;;;2.00;1.83;;;20.10;68.80;;;;;;5092631;28;20199;-58
2023/02/16 08:39:35;;;;;;;2.15;1.95;;;20.10;68.70;;;;;;5092047;28;20311;-56
2023/02/16 08:42:02;;;;;;;1.88;1.75;;;20.10;68.70;;;;;;5082541;28;20194;-56
2023/02/16 08:44:29;;;;;;;2.25;2.05;;;20.10;68.70;;;;;;5083352;28;20245;-57
2023/02/16 08:46:59;;;;;;;2.17;2.00;;;20.10;68.70;;;;;;5077390;28;20654;-58
2023/02/16 08:49:26;;;;;;;2.25;2.05;;;20.10;68.70;;;;;;5089007;28;20596;-56
2023/02/16 08:51:54;;;;;;;2.10;2.00;;;20.10;68.70;;;;;;5098501;28;20202;-59
2023/02/16 08:54:25;;;;;;;1.83;1.73;;;20.10;68.70;;;;;;5080882;28;20277;-52
2023/02/16 08:56:53;;;;;;;2.20;2.00;;;20.10;68.70;;;;;;5091793;28;20201;-59
2023/02/16 08:59:21;;;;;;;1.90;1.80;;;20.10;68.70;;;;;;5083406;28;20195;-59
2023/02/16 09:01:48;;;;;;;2.30;2.10;;;20.10;68.70;;;;;;5085793;28;20210;-55
2023/02/16 09:04:16;;;;;;;2.05;1.90;;;20.10;68.70;;;;;;5083218;28;20269;-56
2023/02/16 09:06:45;;;;;;;1.90;1.80;;;20.10;68.70;;;;;;5082201;28;20190;-56
2023/02/16 09:09:13;;;;;;;2.35;2.15;;;20.10;68.70;;;;;;5082476;28;20198;-56
2023/02/16 09:11:41;;;;;;;2.53;2.33;;;20.10;68.70;;;;;;5077561;28;20203;-58
2023/02/16 09:14:09;;;;;;;2.10;1.95;;;20.10;68.70;;;;;;5088300;28;20195;-59
2023/02/16 09:16:38;;;;;;;2.38;1.70;;;20.10;68.70;;;;;;5078635;28;20203;-60
2023/02/16 09:19:05;;;;;;;3.15;1.85;;;20.10;68.70;;;;;;5077018;28;20190;-56
2023/02/16 09:21:32;;;;;;;1.88;1.77;;;20.10;68.70;;;;;;5099605;28;20221;-58
2023/02/16 09:24:02;;;;;;;2.30;2.10;;;20.10;68.70;;;;;;5086785;28;20205;-59
2023/02/16 09:26:32;;;;;;;1.88;1.77;;;20.10;68.70;;;;;;5090952;28;20217;-56
2023/02/16 09:29:01;;;;;;;1.60;1.50;;;20.10;68.70;;;;;;5082168;28;20194;-57
2023/02/16 09:31:29;;;;;;;2.25;2.15;;;20.10;68.70;;;;;;5081150;28;20252;-57
2023/02/16 09:34:00;;;;;;;11.63;2.38;;;20.10;68.70;;;;;;5084290;28;20248;-58
2023/02/16 09:36:27;;;;;;;3.22;2.97;;;20.10;68.70;;;;;;5078394;28;20668;-55
2023/02/16 09:38:55;;;;;;;4.60;2.95;;;20.10;68.50;;;;;;5087448;28;20195;-54
2023/02/16 09:41:30;;;;;;;4.45;2.80;;;20.20;68.60;;;;;;5082507;28;20206;-60
2023/02/16 09:44:03;;;;;;;3.60;3.30;;;20.20;68.70;;;;;;5099461;28;20197;-60
2023/02/16 09:46:31;;;;;;;2.92;2.63;;;20.20;68.80;;;;;;5091689;28;20581;-60
2023/02/16 09:49:01;;;;;;;3.97;2.75;;;20.10;68.80;;;;;;5082805;28;20190;-61
2023/02/16 09:51:33;;;;;;;2.10;1.90;;;20.10;68.90;;;;;;5090545;28;20201;-60
2023/02/16 09:54:13;;;;;;;2.58;1.90;;;20.10;68.90;;;;;;5085147;28;20195;-60
2023/02/16 09:56:44;;;;;;;2.63;2.42;;;20.10;68.90;;;;;;5085715;28;20221;-60
2023/02/16 09:59:34;;;;;;;2.65;2.45;;;20.20;69.00;;;;;;5089303;28;20201;-60
2023/02/16 10:02:22;;;;;;;3.03;2.83;;;20.20;69.00;;;;;;5081079;28;20198;-60
2023/02/16 10:04:59;;;;;;;2.78;2.58;;;20.10;68.90;;;;;;5089375;28;20197;-60
2023/02/16 10:07:32;;;;;;;3.38;3.17;;;20.10;68.80;;;;;;5080965;28;20190;-60
2023/02/16 10:10:02;;;;;;;3.30;2.67;;;20.10;68.70;;;;;;5080530;28;20202;-60
2023/02/16 10:12:38;;;;;;;3.30;3.00;;;20.10;68.70;;;;;;5080569;28;20874;-60
2023/02/16 10:15:13;;;;;;;2.70;2.50;;;20.10;69.40;;;;;;5084374;28;20204;-60
2023/02/16 10:17:45;;;;;;;3.38;3.08;;;20.10;68.50;;;;;;5074946;28;20222;-60
2023/02/16 10:20:15;;;;;;;2.78;2.55;;;20.10;68.50;;;;;;5080375;28;20204;-60
2023/02/16 10:22:46;;;;;;;3.60;3.30;;;20.10;68.40;;;;;;5084777;28;20753;-60
2023/02/16 10:25:18;;;;;;;4.32;2.35;;;20.20;68.50;;;;;;5074844;28;20242;-60
2023/02/16 10:27:50;;;;;;;2.88;2.60;;;20.20;68.50;;;;;;5082527;28;20194;-61
2023/02/16 10:30:20;;;;;;;3.40;3.00;;;20.20;68.40;;;;;;5082231;28;20566;-61
2023/02/16 10:32:55;;;;;;;3.05;2.75;;;20.20;68.40;;;;;;5079600;28;20186;-60
2023/02/16 10:35:30;;;;;;;2.80;2.42;;;20.20;68.40;;;;;;5089881;28;20226;-60
2023/02/16 10:38:04;;;;;;;3.20;3.00;;;20.20;68.40;;;;;;5090811;28;20189;-61
2023/02/16 10:40:43;;;;;;;3.30;2.83;;;20.20;68.30;;;;;;5081782;28;20202;-60
2023/02/16 10:43:15;;;;;;;2.60;2.40;;;20.20;68.40;;;;;;5083000;28;20202;-60
2023/02/16 10:45:49;;;;;;;3.00;2.75;;;20.20;68.40;;;;;;5081980;28;20215;-60
2023/02/16 10:48:15;;;;;;;2.75;2.55;;;20.20;68.20;;;;;;5079876;28;20191;-60
2023/02/16 10:50:46;;;;;;;4.03;2.97;;;20.20;68.20;;;;;;5079791;28;20569;-60
2023/02/16 10:53:16;;;;;;;2.78;2.58;;;20.20;68.20;;;;;;5089865;28;20198;-60
2023/02/16 10:55:43;;;;;;;2.83;2.63;;;20.20;68.20;;;;;;5090669;28;20201;-60
2023/02/16 10:58:22;;;;;;;2.53;2.33;;;20.20;68.20;;;;;;5086419;28;20532;-60
2023/02/16 11:00:58;;;;;;;2.70;2.50;;;20.20;68.20;;;;;;5081564;28;20194;-60
2023/02/16 11:03:32;;;;;;;3.55;3.25;;;20.10;68.10;;;;;;5080991;28;20202;-60
2023/02/16 11:06:14;;;;;;;2.63;2.42;;;20.10;68.10;;;;;;5089060;28;20214;-60
2023/02/16 11:08:48;;;;;;;2.75;2.55;;;20.10;68.10;;;;;;5081630;28;20201;-60
2023/02/16 11:11:16;;;;;;;3.15;2.65;;;20.10;68.10;;;;;;5075521;28;20194;-60
2023/02/16 11:13:47;;;;;;;3.33;3.03;;;20.10;68.10;;;;;;5082496;28;20256;-60
2023/02/16 11:16:21;;;;;;;2.03;1.92;;;20.10;68.10;;;;;;5076720;28;20209;-61
2023/02/16 11:18:56;;;;;;;2.65;2.45;;;20.10;68.10;;;;;;5069396;28;20220;-59
2023/02/16 11:21:43;;;;;;;2.63;2.42;;;20.10;68.10;;;;;;5072597;28;20218;-60
2023/02/16 11:24:13;;;;;;;2.72;2.53;;;20.10;68.10;;;;;;5084057;28;20186;-61
2023/02/16 11:26:39;;;;;;;2.60;2.40;;;20.10;68.10;;;;;;5077461;28;20214;-61
2023/02/16 11:29:18;;;;;;;3.00;2.80;;;20.10;68.20;;;;;;5074399;28;20197;-60
2023/02/16 11:31:46;;;;;;;2.80;2.60;;;20.10;68.20;;;;;;5073705;28;20901;-61
2023/02/16 11:34:21;;;;;;;2.33;2.15;;;20.10;68.20;;;;;;5075726;28;20201;-60
2023/02/16 11:36:48;;;;;;;3.08;2.80;;;20.10;68.30;;;;;;5074468;28;20287;-61
2023/02/16 11:39:19;;;;;;;3.00;2.70;;;20.10;68.30;;;;;;5076758;28;20217;-60
2023/02/16 11:41:50;;;;;;;2.50;2.30;;;20.20;68.40;;;;;;5077682;28;20199;-61
2023/02/16 11:44:25;;;;;;;4.32;2.42;;;20.10;68.30;;;;;;5072697;28;20190;-60
2023/02/16 11:46:56;;;;;;;3.13;2.83;;;20.20;68.50;;;;;;5078060;28;20287;-60
2023/02/16 11:49:30;;;;;;;2.67;2.47;;;20.20;68.50;;;;;;5077087;28;20190;-60
2023/02/16 11:51:57;;;;;;;2.90;2.70;;;20.20;68.50;;;;;;5087741;28;20221;-60
2023/02/16 11:54:26;;;;;;;2.90;2.70;;;20.20;68.50;;;;;;5080976;28;20202;-60
2023/02/16 11:57:04;;;;;;;3.10;2.80;;;20.20;68.50;;;;;;5094544;28;20204;-60
2023/02/16 11:59:36;;;;;;;3.70;2.30;;;20.20;68.60;;;;;;5101836;28;20201;-60
2023/02/16 12:02:33;;;;;;;3.15;2.85;;;20.20;68.60;;;;;;5082368;28;20200;-61
2023/02/16 12:05:10;;;;;;;3.80;2.58;;;20.20;68.70;;;;;;5094133;28;20197;-64
2023/02/16 12:07:45;;;;;;;2.85;2.45;;;20.20;68.70;;;;;;5096931;28;20205;-65
2023/02/16 12:10:21;;;;;;;2.22;2.05;;;20.20;68.90;;;;;;5072977;28;20205;-65
2023/02/16 12:13:01;;;;;;;5.68;2.65;;;20.20;68.90;;;;;;5090298;28;20193;-64
2023/02/16 12:15:38;;;;;;;2.70;2.38;;;20.20;69.10;;;;;;5090000;28;20240;-61
2023/02/16 12:18:19;;;;;;;3.17;2.88;;;20.20;69.20;;;;;;5080523;28;20197;-57
2023/02/16 12:20:53;;;;;;;3.25;2.95;;;20.20;69.30;;;;;;5080736;28;20591;-57
2023/02/16 12:23:31;;;;;;;3.88;2.10;;;20.30;69.60;;;;;;5096149;28;20229;-58
2023/02/16 12:26:13;;;;;;;2.72;2.53;;;20.30;69.60;;;;;;5086668;28;20595;-63
2023/02/16 12:28:48;;;;;;;4.35;2.80;;;20.30;69.70;;;;;;5070955;28;20202;-65
2023/02/16 12:31:24;;;;;;;2.67;2.20;;;20.30;69.70;;;;;;5081124;28;20189;-63
2023/02/16 12:34:02;;;;;;;3.80;2.88;;;20.30;69.70;;;;;;5079038;28;20197;-62
2023/02/16 12:36:41;;;;;;;3.35;2.60;;;20.40;70.70;;;;;;5082875;28;20240;-62
2023/02/16 12:39:17;;;;;;;2.75;2.55;;;20.40;69.90;;;;;;5073779;28;20616;-60
2023/02/16 12:41:55;;;;;;;2.53;2.33;;;20.40;70.00;;;;;;5085937;28;20304;-63
2023/02/16 12:44:34;;;;;;;2.40;2.20;;;20.40;70.00;;;;;;5072050;28;20528;-64
2023/02/16 12:47:05;;;;;;;3.08;2.38;;;20.40;70.00;;;;;;5071145;28;20221;-64
2023/02/16 12:49:50;;;;;;;2.42;2.33;;;20.40;70.00;;;;;;5072163;28;20198;-65
2023/02/16 12:52:32;;;;;;;2.67;2.47;;;20.40;70.10;;;;;;5086994;28;20205;-63
2023/02/16 12:55:17;;;;;;;2.57;2.23;;;20.40;70.10;;;;;;5079885;28;20722;-64
2023/02/16 12:57:55;;;;;;;3.13;2.88;;;20.40;70.10;;;;;;5069975;28;20464;-63
2023/02/16 13:00:26;;;;;;;2.67;2.47;;;20.50;70.20;;;;;;5080504;28;20589;-62
2023/02/16 13:02:56;;;;;;;2.73;2.50;;;20.50;70.20;;;;;;5087926;28;20444;-65
2023/02/16 13:05:29;;;;;;;2.53;2.33;;;20.50;70.20;;;;;;5087629;28;20848;-65
2023/02/16 13:08:02;;;;;;;2.60;2.40;;;20.50;70.20;;;;;;5095265;28;20858;-61
2023/02/16 13:10:36;;;;;;;2.43;2.10;;;20.50;70.20;;;;;;5084677;28;20205;-57
2023/02/16 13:13:08;;;;;;;4.20;2.33;;;20.60;70.30;;;;;;5071349;28;20512;-60
2023/02/16 13:15:37;;;;;;;2.30;2.13;;;20.60;70.20;;;;;;5077562;28;20195;-60
2023/02/16 13:18:10;;;;;;;2.33;2.05;;;20.60;70.20;;;;;;5087803;28;20224;-62
2023/02/16 13:20:42;;;;;;;2.43;2.23;;;20.60;70.20;;;;;;5076543;28;20533;-63
2023/02/16 13:23:32;;;;;;;2.30;2.10;;;20.60;70.20;;;;;;5081217;28;20481;-60
2023/02/16 13:26:16;;;;;;;2.47;2.27;;;20.60;70.10;;;;;;5080838;28;20479;-59
2023/02/16 13:29:15;;;;;;;2.93;2.23;;;20.60;70.20;;;;;;5076689;28;20843;-56
2023/02/16 13:31:52;;;;;;;2.45;1.98;;;20.60;70.20;;;;;;5075068;28;20492;-57
2023/02/16 13:34:56;;;;;;;2.10;1.90;;;20.60;70.20;;;;;;5077168;28;20201;-63
2023/02/16 13:37:41;;;;;;;2.43;2.23;;;20.60;70.20;;;;;;5069184;28;20466;-59
2023/02/16 13:40:32;;;;;;;1.90;1.80;;;20.60;70.20;;;;;;5078080;28;20563;-60
2023/02/16 13:43:16;;;;;;;2.77;2.57;;;20.60;70.20;;;;;;5072454;28;20452;-60
2023/02/16 13:45:45;;;;;;;3.47;2.40;;;20.60;70.20;;;;;;5076620;28;20449;-64